sensor_id;sensor_type;location;lat;lon;timestamp;pressure;altitude;pressure_sealevel;temperature;humidity
10145;BME280;5113;41.822;23.564;2023-04-08T00:01:21;-11002.44;;;2.46;100.00
10145;BME280;5113;41.822;23.564;2023-04-08T00:04:27;-11006.22;;;2.60;98.12
10145;BME280;5113;41.822;23.564;2023-04-08T00:07:35;-11005.50;;;2.57;99.60
10145;BME280;5113;41.822;23.564;2023-04-08T00:10:44;-11005.78;;;2.58;99.81
10145;BME280;5113;41.822;23.564;2023-04-08T00:13:50;-10997.09;;;2.27;100.00
10145;BME280;5113;41.822;23.564;2023-04-08T00:16:57;-11002.56;;;2.47;100.00
10145;BME280;5113;41.822;23.564;2023-04-08T00:20:04;-10998.91;;;2.33;100.00
10145;BME280;5113;41.822;23.564;2023-04-08T00:23:10;-10997.66;;;2.29;100.00
10145;BME280;5113;41.822;23.564;2023-04-08T00:26:18;-10999.34;;;2.35;99.98
10145;BME280;5113;41.822;23.564;2023-04-08T00:29:24;-10986.72;;;1.89;100.00
10145;BME280;5113;41.822;23.564;2023-04-08T00:32:30;-10983.50;;;1.78;100.00
10145;BME280;5113;41.822;23.564;2023-04-08T00:35:37;-10994.00;;;2.16;100.00
10145;BME280;5113;41.822;23.564;2023-04-08T00:38:43;-10996.53;;;2.25;100.00
10145;BME280;5113;41.822;23.564;2023-04-08T00:41:50;-10998.22;;;2.31;100.00
10145;BME280;5113;41.822;23.564;2023-04-08T00:44:57;-11000.47;;;2.39;100.00
10145;BME280;5113;41.822;23.564;2023-04-08T00:48:04;-11004.38;;;2.53;99.27
10145;BME280;5113;41.822;23.564;2023-04-08T00:51:10;-10997.81;;;2.29;100.00
10145;BME280;5113;41.822;23.564;2023-04-08T00:54:17;-10992.34;;;2.10;100.00
10145;BME280;5113;41.822;23.564;2023-04-08T00:57:25;-10993.88;;;2.15;100.00
10145;BME280;5113;41.822;23.564;2023-04-08T01:00:32;-10994.56;;;2.18;100.00
10145;BME280;5113;41.822;23.564;2023-04-08T01:03:46;-10993.72;;;2.15;99.84
10145;BME280;5113;41.822;23.564;2023-04-08T01:07:00;-11001.59;;;2.43;100.00
10145;BME280;5113;41.822;23.564;2023-04-08T01:10:11;-10992.91;;;2.12;100.00
10145;BME280;5113;41.822;23.564;2023-04-08T01:13:21;-10996.69;;;2.25;100.00
10145;BME280;5113;41.822;23.564;2023-04-08T01:16:28;-10998.22;;;2.31;100.00
10145;BME280;5113;41.822;23.564;2023-04-08T01:19:38;-10998.22;;;2.31;100.00
10145;BME280;5113;41.822;23.564;2023-04-08T01:22:54;-10984.63;;;1.82;100.00
10145;BME280;5113;41.822;23.564;2023-04-08T01:26:05;-10976.50;;;1.52;100.00
10145;BME280;5113;41.822;23.564;2023-04-08T01:29:11;-10987.00;;;1.90;100.00
10145;BME280;5113;41.822;23.564;2023-04-08T01:32:19;-10980.00;;;1.65;100.00
10145;BME280;5113;41.822;23.564;2023-04-08T01:35:26;-10970.75;;;1.31;100.00
10145;BME280;5113;41.822;23.564;2023-04-08T01:38:34;-10976.06;;;1.51;100.00
10145;BME280;5113;41.822;23.564;2023-04-08T01:41:42;-10976.63;;;1.53;100.00
10145;BME280;5113;41.822;23.564;2023-04-08T01:44:50;-10996.25;;;2.24;100.00
10145;BME280;5113;41.822;23.564;2023-04-08T01:47:59;-11003.41;;;2.50;100.00
10145;BME280;5113;41.822;23.564;2023-04-08T01:51:06;-11010.69;;;2.76;99.23
10145;BME280;5113;41.822;23.564;2023-04-08T01:54:14;-11009.44;;;2.72;97.94
10145;BME280;5113;41.822;23.564;2023-04-08T01:57:23;-11011.41;;;2.79;98.09
10145;BME280;5113;41.822;23.564;2023-04-08T02:00:33;-10992.63;;;2.11;100.00
10145;BME280;5113;41.822;23.564;2023-04-08T02:03:42;-10995.41;;;2.21;100.00
10145;BME280;5113;41.822;23.564;2023-04-08T02:06:49;-11005.94;;;2.59;99.77
10145;BME280;5113;41.822;23.564;2023-04-08T02:09:56;-10998.22;;;2.31;100.00
10145;BME280;5113;41.822;23.564;2023-04-08T02:13:04;-10993.72;;;2.15;100.00
10145;BME280;5113;41.822;23.564;2023-04-08T02:16:17;-10983.63;;;1.78;100.00
10145;BME280;5113;41.822;23.564;2023-04-08T02:19:28;-10979.72;;;1.64;100.00
10145;BME280;5113;41.822;23.564;2023-04-08T02:22:39;-10989.53;;;1.99;100.00
10145;BME280;5113;41.822;23.564;2023-04-08T02:25:48;-10995.97;;;2.23;100.00
10145;BME280;5113;41.822;23.564;2023-04-08T02:28:56;-11003.41;;;2.50;100.00
10145;BME280;5113;41.822;23.564;2023-04-08T02:32:04;-10990.38;;;2.03;100.00
10145;BME280;5113;41.822;23.564;2023-04-08T02:35:13;-11015.03;;;2.92;100.00
10145;BME280;5113;41.822;23.564;2023-04-08T02:38:21;-11012.53;;;2.83;98.77
10145;BME280;5113;41.822;23.564;2023-04-08T02:41:28;-11010.69;;;2.76;98.83
10145;BME280;5113;41.822;23.564;2023-04-08T02:44:38;-11017.16;;;2.99;98.35
10145;BME280;5113;41.822;23.564;2023-04-08T02:47:45;-11014.34;;;2.89;99.20
10145;BME280;5113;41.822;23.564;2023-04-08T02:50:52;-10998.50;;;2.32;100.00
10145;BME280;5113;41.822;23.564;2023-04-08T02:53:58;-10997.66;;;2.29;100.00
10145;BME280;5113;41.822;23.564;2023-04-08T02:57:05;-10993.72;;;2.15;100.00
10145;BME280;5113;41.822;23.564;2023-04-08T03:00:14;-10989.25;;;1.98;100.00
10145;BME280;5113;41.822;23.564;2023-04-08T03:03:20;-11008.31;;;2.68;100.00
10145;BME280;5113;41.822;23.564;2023-04-08T03:06:31;-11006.22;;;2.60;100.00
10145;BME280;5113;41.822;23.564;2023-04-08T03:09:38;-11011.41;;;2.79;100.00
10145;BME280;5113;41.822;23.564;2023-04-08T03:12:44;-11015.59;;;2.94;100.00
10145;BME280;5113;41.822;23.564;2023-04-08T03:15:52;-11020.09;;;3.10;98.37
10145;BME280;5113;41.822;23.564;2023-04-08T03:18:58;-11026.81;;;3.35;96.62
10145;BME280;5113;41.822;23.564;2023-04-08T03:22:04;-11023.75;;;3.23;96.99
10145;BME280;5113;41.822;23.564;2023-04-08T03:25:11;-11023.75;;;3.23;97.87
10145;BME280;5113;41.822;23.564;2023-04-08T03:28:17;-11022.62;;;3.19;98.02
10145;BME280;5113;41.822;23.564;2023-04-08T03:31:25;-11018.84;;;3.06;98.60
10145;BME280;5113;41.822;23.564;2023-04-08T03:34:32;-11001.03;;;2.41;100.00
10145;BME280;5113;41.822;23.564;2023-04-08T03:37:39;-11009.16;;;2.71;100.00
10145;BME280;5113;41.822;23.564;2023-04-08T03:40:45;-11025.56;;;3.30;100.00
10145;BME280;5113;41.822;23.564;2023-04-08T03:43:51;-11029.22;;;3.43;98.59
10145;BME280;5113;41.822;23.564;2023-04-08T03:46:59;-11030.75;;;3.49;97.76
10145;BME280;5113;41.822;23.564;2023-04-08T03:50:06;-11028.78;;;3.42;98.79
10145;BME280;5113;41.822;23.564;2023-04-08T03:53:13;-11021.63;;;3.16;100.00
10145;BME280;5113;41.822;23.564;2023-04-08T03:56:19;-11028.09;;;3.39;100.00
10145;BME280;5113;41.822;23.564;2023-04-08T03:59:25;-11019.53;;;3.08;100.00
10145;BME280;5113;41.822;23.564;2023-04-08T04:02:33;-11017.28;;;3.00;100.00
10145;BME280;5113;41.822;23.564;2023-04-08T04:05:40;-11003.81;;;2.51;100.00
10145;BME280;5113;41.822;23.564;2023-04-08T04:08:47;-11014.47;;;2.90;100.00
10145;BME280;5113;41.822;23.564;2023-04-08T04:11:54;-11027.25;;;3.36;100.00
10145;BME280;5113;41.822;23.564;2023-04-08T04:15:01;-11019.81;;;3.09;100.00
10145;BME280;5113;41.822;23.564;2023-04-08T04:18:09;-11023.19;;;3.21;99.69
10145;BME280;5113;41.822;23.564;2023-04-08T04:21:15;-11025.72;;;3.30;100.00
10145;BME280;5113;41.822;23.564;2023-04-08T04:24:22;-11027.09;;;3.36;97.36
10145;BME280;5113;41.822;23.564;2023-04-08T04:27:28;-11022.62;;;3.19;100.00
10145;BME280;5113;41.822;23.564;2023-04-08T04:30:36;-11029.91;;;3.46;99.99
10145;BME280;5113;41.822;23.564;2023-04-08T04:33:44;-11026.53;;;3.34;99.64
10145;BME280;5113;41.822;23.564;2023-04-08T04:36:51;-11035.38;;;3.65;97.20
10145;BME280;5113;41.822;23.564;2023-04-08T04:39:57;-11040.28;;;3.83;95.21
10145;BME280;5113;41.822;23.564;2023-04-08T04:43:03;-11042.81;;;3.92;95.75
10145;BME280;5113;41.822;23.564;2023-04-08T04:46:10;-11036.78;;;3.71;95.73
10145;BME280;5113;41.822;23.564;2023-04-08T04:49:18;-11038.88;;;3.78;97.49
10145;BME280;5113;41.822;23.564;2023-04-08T04:52:24;-11051.78;;;4.25;93.75
10145;BME280;5113;41.822;23.564;2023-04-08T04:55:31;-11049.84;;;4.18;93.18
10145;BME280;5113;41.822;23.564;2023-04-08T04:58:37;-11052.50;;;4.27;92.88
10145;BME280;5113;41.822;23.564;2023-04-08T05:01:43;-11053.19;;;4.30;91.40
10145;BME280;5113;41.822;23.564;2023-04-08T05:04:51;-11056.28;;;4.41;92.93
10145;BME280;5113;41.822;23.564;2023-04-08T05:07:59;-11048.72;;;4.14;91.43
10145;BME280;5113;41.822;23.564;2023-04-08T05:11:08;-11051.94;;;4.25;91.61
10145;BME280;5113;41.822;23.564;2023-04-08T05:14:14;-11037.34;;;3.73;96.26
10145;BME280;5113;41.822;23.564;2023-04-08T05:17:20;-11035.53;;;3.66;97.19
10145;BME280;5113;41.822;23.564;2023-04-08T05:20:28;-11054.03;;;4.33;93.77
10145;BME280;5113;41.822;23.564;2023-04-08T05:23:35;-11055.72;;;4.39;90.46
10145;BME280;5113;41.822;23.564;2023-04-08T05:26:41;-11050.97;;;4.22;94.14
10145;BME280;5113;41.822;23.564;2023-04-08T05:29:47;-11052.34;;;4.27;93.05
10145;BME280;5113;41.822;23.564;2023-04-08T05:32:54;-11033.56;;;3.59;98.18
10145;BME280;5113;41.822;23.564;2023-04-08T05:36:05;-11035.25;;;3.65;97.61
10145;BME280;5113;41.822;23.564;2023-04-08T05:39:11;-11044.50;;;3.98;96.02
10145;BME280;5113;41.822;23.564;2023-04-08T05:42:18;-11049.28;;;4.16;94.72
10145;BME280;5113;41.822;23.564;2023-04-08T05:45:24;-11059.38;;;4.52;93.52
10145;BME280;5113;41.822;23.564;2023-04-08T05:48:31;-11053.06;;;4.29;94.21
10145;BME280;5113;41.822;23.564;2023-04-08T05:51:39;-11078.88;;;5.23;89.08
10145;BME280;5113;41.822;23.564;2023-04-08T05:54:45;-11081.28;;;5.31;86.93
10145;BME280;5113;41.822;23.564;2023-04-08T05:57:52;-11079.44;;;5.25;81.88
10145;BME280;5113;41.822;23.564;2023-04-08T06:00:58;-11094.75;;;5.80;79.06
10145;BME280;5113;41.822;23.564;2023-04-08T06:04:04;-11098.69;;;5.94;78.04
10145;BME280;5113;41.822;23.564;2023-04-08T06:07:13;-11074.25;;;5.06;82.26
10145;BME280;5113;41.822;23.564;2023-04-08T06:10:19;-11065.56;;;4.75;87.63
10145;BME280;5113;41.822;23.564;2023-04-08T06:13:25;-11054.75;;;4.36;88.05
10145;BME280;5113;41.822;23.564;2023-04-08T06:16:32;-11076.22;;;5.13;84.27
10145;BME280;5113;41.822;23.564;2023-04-08T06:19:38;-11091.09;;;5.67;76.34
10145;BME280;5113;41.822;23.564;2023-04-08T06:22:45;-11116.94;;;6.60;72.17
10145;BME280;5113;41.822;23.564;2023-04-08T06:25:52;-11137.88;;;7.36;68.67
10145;BME280;5113;41.822;23.564;2023-04-08T06:28:59;-11111.19;;;6.40;69.48
10145;BME280;5113;41.822;23.564;2023-04-08T06:32:05;-11110.75;;;6.38;71.47
10145;BME280;5113;41.822;23.564;2023-04-08T06:35:12;-11140.53;;;7.46;67.93
10145;BME280;5113;41.822;23.564;2023-04-08T06:38:20;-11134.50;;;7.24;67.10
10145;BME280;5113;41.822;23.564;2023-04-08T06:41:26;-11150.78;;;7.83;64.55
10145;BME280;5113;41.822;23.564;2023-04-08T06:44:32;-11171.75;;;8.58;61.66
10145;BME280;5113;41.822;23.564;2023-04-08T06:47:39;-11189.59;;;9.23;61.64
10145;BME280;5113;41.822;23.564;2023-04-08T06:50:45;-11199.28;;;9.58;57.24
10145;BME280;5113;41.822;23.564;2023-04-08T06:53:53;-11203.22;;;9.72;57.13
10145;BME280;5113;41.822;23.564;2023-04-08T06:57:00;-11198.31;;;9.54;57.35
10145;BME280;5113;41.822;23.564;2023-04-08T07:00:09;-11200.69;;;9.63;57.89
10145;BME280;5113;41.822;23.564;2023-04-08T07:03:15;-11198.44;;;9.55;57.49
10145;BME280;5113;41.822;23.564;2023-04-08T07:06:22;-11197.03;;;9.50;57.70
10145;BME280;5113;41.822;23.564;2023-04-08T07:09:29;-11188.88;;;9.20;58.09
10145;BME280;5113;41.822;23.564;2023-04-08T07:12:36;-11195.78;;;9.45;58.05
10145;BME280;5113;41.822;23.564;2023-04-08T07:15:43;-11192.53;;;9.34;59.66
10145;BME280;5113;41.822;23.564;2023-04-08T07:18:49;-11192.81;;;9.35;59.56
10145;BME280;5113;41.822;23.564;2023-04-08T07:21:56;-11189.16;;;9.21;59.32
10145;BME280;5113;41.822;23.564;2023-04-08T07:25:04;-11183.81;;;9.02;61.38
10145;BME280;5113;41.822;23.564;2023-04-08T07:28:11;-11175.66;;;8.73;63.19
10145;BME280;5113;41.822;23.564;2023-04-08T07:31:17;-11207.44;;;9.87;59.85
10145;BME280;5113;41.822;23.564;2023-04-08T07:34:24;-11184.38;;;9.04;61.31
10145;BME280;5113;41.822;23.564;2023-04-08T07:37:30;-11201.53;;;9.66;59.14
10145;BME280;5113;41.822;23.564;2023-04-08T07:40:38;-11221.50;;;10.38;57.77
10145;BME280;5113;41.822;23.564;2023-04-08T07:43:44;-11216.72;;;10.21;58.41
10145;BME280;5113;41.822;23.564;2023-04-08T07:46:50;-11213.91;;;10.11;59.02
10145;BME280;5113;41.822;23.564;2023-04-08T07:49:56;-11242.31;;;11.13;56.03
10145;BME280;5113;41.822;23.564;2023-04-08T07:53:02;-11230.66;;;10.71;56.63
10145;BME280;5113;41.822;23.564;2023-04-08T07:56:14;-11271.59;;;12.19;53.42
10145;BME280;5113;41.822;23.564;2023-04-08T07:59:21;-11221.22;;;10.37;56.14
10145;BME280;5113;41.822;23.564;2023-04-08T08:02:28;-11219.81;;;10.32;57.21
10145;BME280;5113;41.822;23.564;2023-04-08T08:05:35;-11229.94;;;10.69;57.86
10145;BME280;5113;41.822;23.564;2023-04-08T08:08:41;-11242.47;;;11.14;55.46
10145;BME280;5113;41.822;23.564;2023-04-08T08:11:48;-11224.47;;;10.49;55.28
10145;BME280;5113;41.822;23.564;2023-04-08T08:14:54;-11238.09;;;10.98;54.14
10145;BME280;5113;41.822;23.564;2023-04-08T08:18:03;-11246.00;;;11.27;53.66
10145;BME280;5113;41.822;23.564;2023-04-08T08:21:09;-11246.00;;;11.27;53.67
10145;BME280;5113;41.822;23.564;2023-04-08T08:24:15;-11273.00;;;12.24;52.89
10145;BME280;5113;41.822;23.564;2023-04-08T08:27:24;-11267.94;;;12.06;51.55
10145;BME280;5113;41.822;23.564;2023-04-08T08:30:30;-11265.41;;;11.97;52.21
10145;BME280;5113;41.822;23.564;2023-04-08T08:33:38;-11283.00;;;12.60;51.94
10145;BME280;5113;41.822;23.564;2023-04-08T08:36:45;-11285.69;;;12.70;50.67
10145;BME280;5113;41.822;23.564;2023-04-08T08:39:51;-11289.19;;;12.82;51.07
10145;BME280;5113;41.822;23.564;2023-04-08T08:42:59;-11237.13;;;10.95;53.67
10145;BME280;5113;41.822;23.564;2023-04-08T08:46:09;-11258.66;;;11.72;53.20
10145;BME280;5113;41.822;23.564;2023-04-08T08:49:16;-11248.94;;;11.37;53.91
10145;BME280;5113;41.822;23.564;2023-04-08T08:52:23;-11246.84;;;11.30;52.78
10145;BME280;5113;41.822;23.564;2023-04-08T08:55:31;-11243.88;;;11.19;51.46
10145;BME280;5113;41.822;23.564;2023-04-08T08:58:58;-11279.19;;;12.46;52.64
10145;BME280;5113;41.822;23.564;2023-04-08T09:02:22;-11236.72;;;10.93;53.48
10145;BME280;5113;41.822;23.564;2023-04-08T09:05:35;-11222.34;;;10.41;55.69
10145;BME280;5113;41.822;23.564;2023-04-08T09:08:52;-11232.34;;;10.77;52.38
10145;BME280;5113;41.822;23.564;2023-04-08T09:12:02;-11257.25;;;11.67;50.51
10145;BME280;5113;41.822;23.564;2023-04-08T09:15:11;-11268.78;;;12.09;50.11
10145;BME280;5113;41.822;23.564;2023-04-08T09:18:21;-11270.47;;;12.15;49.76
10145;BME280;5113;41.822;23.564;2023-04-08T09:21:27;-11237.84;;;10.97;51.89
10145;BME280;5113;41.822;23.564;2023-04-08T09:24:34;-11248.66;;;11.36;51.53
10145;BME280;5113;41.822;23.564;2023-04-08T09:27:41;-11252.03;;;11.48;50.61
10145;BME280;5113;41.822;23.564;2023-04-08T09:30:48;-11264.44;;;11.93;47.45
10145;BME280;5113;41.822;23.564;2023-04-08T09:33:56;-11257.81;;;11.69;47.50
10145;BME280;5113;41.822;23.564;2023-04-08T09:37:03;-11289.34;;;12.83;47.55
10145;BME280;5113;41.822;23.564;2023-04-08T09:40:10;-11289.34;;;12.83;47.32
10145;BME280;5113;41.822;23.564;2023-04-08T09:43:21;-11282.44;;;12.58;48.68
10145;BME280;5113;41.822;23.564;2023-04-08T09:46:46;-11264.84;;;11.95;49.71
10145;BME280;5113;41.822;23.564;2023-04-08T09:50:01;-11272.31;;;12.21;47.91
10145;BME280;5113;41.822;23.564;2023-04-08T09:53:13;-11266.53;;;12.01;49.55
10145;BME280;5113;41.822;23.564;2023-04-08T09:56:32;-11254.28;;;11.56;53.32
10145;BME280;5113;41.822;23.564;2023-04-08T09:59:56;-11253.59;;;11.54;54.15
10145;BME280;5113;41.822;23.564;2023-04-08T10:03:10;-11247.97;;;11.34;55.46
10145;BME280;5113;41.822;23.564;2023-04-08T10:06:21;-11247.97;;;11.34;55.29
10145;BME280;5113;41.822;23.564;2023-04-08T10:09:28;-11270.75;;;12.16;54.00
10145;BME280;5113;41.822;23.564;2023-04-08T10:12:35;-11264.72;;;11.94;54.94
10145;BME280;5113;41.822;23.564;2023-04-08T10:15:41;-11245.56;;;11.25;55.82
10145;BME280;5113;41.822;23.564;2023-04-08T10:18:51;-11260.47;;;11.79;53.00
10145;BME280;5113;41.822;23.564;2023-04-08T10:22:00;-11258.09;;;11.70;52.44
10145;BME280;5113;41.822;23.564;2023-04-08T10:25:28;-11261.47;;;11.82;52.01
10145;BME280;5113;41.822;23.564;2023-04-08T10:28:35;-11267.09;;;12.03;52.40
10145;BME280;5113;41.822;23.564;2023-04-08T10:31:41;-11273.16;;;12.24;52.08
10145;BME280;5113;41.822;23.564;2023-04-08T10:34:52;-11264.44;;;11.93;51.10
10145;BME280;5113;41.822;23.564;2023-04-08T10:37:59;-11251.34;;;11.46;49.88
10145;BME280;5113;41.822;23.564;2023-04-08T10:41:05;-11247.41;;;11.32;50.48
10145;BME280;5113;41.822;23.564;2023-04-08T10:44:15;-11255.28;;;11.60;50.82
10145;BME280;5113;41.822;23.564;2023-04-08T10:47:25;-11267.25;;;12.03;50.76
10145;BME280;5113;41.822;23.564;2023-04-08T10:50:33;-11274.97;;;12.31;48.08
10145;BME280;5113;41.822;23.564;2023-04-08T10:53:40;-11258.66;;;11.72;47.53
10145;BME280;5113;41.822;23.564;2023-04-08T10:56:47;-11257.53;;;11.68;46.79
10145;BME280;5113;41.822;23.564;2023-04-08T10:59:54;-11282.00;;;12.56;45.45
10145;BME280;5113;41.822;23.564;2023-04-08T11:03:00;-11295.53;;;13.05;46.69
10145;BME280;5113;41.822;23.564;2023-04-08T11:06:09;-11297.91;;;13.14;46.37
10145;BME280;5113;41.822;23.564;2023-04-08T11:09:16;-11291.72;;;12.92;46.24
10145;BME280;5113;41.822;23.564;2023-04-08T11:12:22;-11292.44;;;12.94;46.40
10145;BME280;5113;41.822;23.564;2023-04-08T11:15:29;-11298.78;;;13.17;45.00
10145;BME280;5113;41.822;23.564;2023-04-08T11:18:37;-11308.19;;;13.51;44.67
10145;BME280;5113;41.822;23.564;2023-04-08T11:21:46;-11297.78;;;13.13;44.99
10145;BME280;5113;41.822;23.564;2023-04-08T11:24:53;-11292.44;;;12.94;44.55
10145;BME280;5113;41.822;23.564;2023-04-08T11:28:00;-11304.81;;;13.39;45.25
10145;BME280;5113;41.822;23.564;2023-04-08T11:31:07;-11292.00;;;12.93;45.01
10145;BME280;5113;41.822;23.564;2023-04-08T11:34:21;-11283.13;;;12.61;46.35
10145;BME280;5113;41.822;23.564;2023-04-08T11:37:37;-11279.19;;;12.46;45.77
10145;BME280;5113;41.822;23.564;2023-04-08T11:40:51;-11273.28;;;12.25;47.09
10145;BME280;5113;41.822;23.564;2023-04-08T11:43:58;-11269.63;;;12.12;46.15
10145;BME280;5113;41.822;23.564;2023-04-08T11:47:05;-11276.94;;;12.38;46.01
10145;BME280;5113;41.822;23.564;2023-04-08T11:50:11;-11282.84;;;12.60;45.37
10145;BME280;5113;41.822;23.564;2023-04-08T11:53:20;-11276.66;;;12.37;45.52
10145;BME280;5113;41.822;23.564;2023-04-08T11:56:27;-11290.75;;;12.88;45.94
10145;BME280;5113;41.822;23.564;2023-04-08T11:59:37;-11285.41;;;12.69;46.15
10145;BME280;5113;41.822;23.564;2023-04-08T12:02:43;-11292.00;;;12.93;45.61
10145;BME280;5113;41.822;23.564;2023-04-08T12:05:51;-11291.59;;;12.91;46.06
10145;BME280;5113;41.822;23.564;2023-04-08T12:09:00;-11266.53;;;12.01;46.65
10145;BME280;5113;41.822;23.564;2023-04-08T12:12:06;-11268.38;;;12.07;46.37
10145;BME280;5113;41.822;23.564;2023-04-08T12:15:12;-11283.56;;;12.62;45.25
10145;BME280;5113;41.822;23.564;2023-04-08T12:18:19;-11299.63;;;13.20;44.91
10145;BME280;5113;41.822;23.564;2023-04-08T12:21:26;-11294.53;;;13.02;43.94
10145;BME280;5113;41.822;23.564;2023-04-08T12:24:34;-11287.06;;;12.75;44.31
10145;BME280;5113;41.822;23.564;2023-04-08T12:27:41;-11285.25;;;12.68;45.91
10145;BME280;5113;41.822;23.564;2023-04-08T12:30:47;-11281.44;;;12.54;45.52
10145;BME280;5113;41.822;23.564;2023-04-08T12:33:53;-11264.56;;;11.94;46.49
10145;BME280;5113;41.822;23.564;2023-04-08T12:37:00;-11268.78;;;12.09;48.97
10145;BME280;5113;41.822;23.564;2023-04-08T12:40:08;-11260.34;;;11.78;47.13
10145;BME280;5113;41.822;23.564;2023-04-08T12:43:15;-11263.72;;;11.90;47.53
10145;BME280;5113;41.822;23.564;2023-04-08T12:46:21;-11276.09;;;12.35;47.02
10145;BME280;5113;41.822;23.564;2023-04-08T12:49:28;-11286.50;;;12.73;47.71
10145;BME280;5113;41.822;23.564;2023-04-08T12:52:37;-11290.19;;;12.86;46.28
10145;BME280;5113;41.822;23.564;2023-04-08T12:55:45;-11284.56;;;12.66;47.04
10145;BME280;5113;41.822;23.564;2023-04-08T12:58:53;-11300.31;;;13.23;47.70
10145;BME280;5113;41.822;23.564;2023-04-08T13:02:00;-11299.75;;;13.20;45.38
10145;BME280;5113;41.822;23.564;2023-04-08T13:05:07;-11302.84;;;13.32;45.47
10145;BME280;5113;41.822;23.564;2023-04-08T13:08:13;-11300.75;;;13.24;45.53
10145;BME280;5113;41.822;23.564;2023-04-08T13:11:22;-11309.59;;;13.56;45.89
10145;BME280;5113;41.822;23.564;2023-04-08T13:14:28;-11290.31;;;12.86;46.03
10145;BME280;5113;41.822;23.564;2023-04-08T13:17:34;-11307.06;;;13.47;46.32
10145;BME280;5113;41.822;23.564;2023-04-08T13:20:41;-11296.22;;;13.08;46.96
10145;BME280;5113;41.822;23.564;2023-04-08T13:23:47;-11287.34;;;12.76;49.52
10145;BME280;5113;41.822;23.564;2023-04-08T13:26:54;-11282.84;;;12.60;48.76
10145;BME280;5113;41.822;23.564;2023-04-08T13:30:01;-11272.44;;;12.22;49.08
10145;BME280;5113;41.822;23.564;2023-04-08T13:33:07;-11288.34;;;12.79;48.21
10145;BME280;5113;41.822;23.564;2023-04-08T13:36:14;-11303.41;;;13.34;47.78
10145;BME280;5113;41.822;23.564;2023-04-08T13:39:20;-11296.38;;;13.08;47.76
10145;BME280;5113;41.822;23.564;2023-04-08T13:42:27;-11312.13;;;13.65;46.27
10145;BME280;5113;41.822;23.564;2023-04-08T13:45:35;-11338.91;;;14.62;45.08
10145;BME280;5113;41.822;23.564;2023-04-08T13:48:41;-11327.91;;;14.22;46.50
10145;BME280;5113;41.822;23.564;2023-04-08T13:51:48;-11280.47;;;12.51;48.79
10145;BME280;5113;41.822;23.564;2023-04-08T13:54:54;-11292.00;;;12.93;49.63
10145;BME280;5113;41.822;23.564;2023-04-08T13:58:02;-11295.66;;;13.06;50.05
10145;BME280;5113;41.822;23.564;2023-04-08T14:01:21;-11297.78;;;13.13;49.85
10145;BME280;5113;41.822;23.564;2023-04-08T14:04:28;-11277.50;;;12.40;51.81
10145;BME280;5113;41.822;23.564;2023-04-08T14:07:34;-11281.72;;;12.55;50.54
10145;BME280;5113;41.822;23.564;2023-04-08T14:10:40;-11284.56;;;12.66;51.19
10145;BME280;5113;41.822;23.564;2023-04-08T14:13:48;-11284.69;;;12.66;51.26
10145;BME280;5113;41.822;23.564;2023-04-08T14:16:54;-11268.38;;;12.07;51.48
10145;BME280;5113;41.822;23.564;2023-04-08T14:20:00;-11281.88;;;12.56;51.37
10145;BME280;5113;41.822;23.564;2023-04-08T14:23:08;-11290.47;;;12.87;51.70
10145;BME280;5113;41.822;23.564;2023-04-08T14:26:14;-11288.19;;;12.79;51.99
10145;BME280;5113;41.822;23.564;2023-04-08T14:29:22;-11289.91;;;12.85;51.63
10145;BME280;5113;41.822;23.564;2023-04-08T14:32:31;-11285.25;;;12.68;52.68
10145;BME280;5113;41.822;23.564;2023-04-08T14:35:37;-11280.03;;;12.49;52.59
10145;BME280;5113;41.822;23.564;2023-04-08T14:38:43;-11272.72;;;12.23;51.50
10145;BME280;5113;41.822;23.564;2023-04-08T14:41:49;-11276.25;;;12.36;51.73
10145;BME280;5113;41.822;23.564;2023-04-08T14:44:57;-11280.19;;;12.50;52.33
10145;BME280;5113;41.822;23.564;2023-04-08T14:48:03;-11276.09;;;12.35;52.50
10145;BME280;5113;41.822;23.564;2023-04-08T14:51:10;-11275.81;;;12.34;52.15
10145;BME280;5113;41.822;23.564;2023-04-08T14:54:17;-11276.09;;;12.35;52.22
10145;BME280;5113;41.822;23.564;2023-04-08T14:57:24;-11274.41;;;12.29;52.29
10145;BME280;5113;41.822;23.564;2023-04-08T15:00:31;-11271.88;;;12.20;52.32
10145;BME280;5113;41.822;23.564;2023-04-08T15:03:38;-11273.44;;;12.26;51.80
10145;BME280;5113;41.822;23.564;2023-04-08T15:06:45;-11276.53;;;12.37;51.53
10145;BME280;5113;41.822;23.564;2023-04-08T15:09:51;-11271.88;;;12.20;52.05
10145;BME280;5113;41.822;23.564;2023-04-08T15:12:58;-11259.22;;;11.74;53.44
10145;BME280;5113;41.822;23.564;2023-04-08T15:16:06;-11266.13;;;11.99;51.67
10145;BME280;5113;41.822;23.564;2023-04-08T15:19:12;-11266.69;;;12.01;52.81
10145;BME280;5113;41.822;23.564;2023-04-08T15:22:19;-11269.06;;;12.10;52.76
10145;BME280;5113;41.822;23.564;2023-04-08T15:25:25;-11263.16;;;11.88;53.24
10145;BME280;5113;41.822;23.564;2023-04-08T15:28:31;-11261.47;;;11.82;52.93
10145;BME280;5113;41.822;23.564;2023-04-08T15:31:39;-11262.03;;;11.84;54.46
10145;BME280;5113;41.822;23.564;2023-04-08T15:34:46;-11259.22;;;11.74;54.29
10145;BME280;5113;41.822;23.564;2023-04-08T15:37:54;-11253.59;;;11.54;55.70
10145;BME280;5113;41.822;23.564;2023-04-08T15:41:00;-11250.50;;;11.43;56.49
10145;BME280;5113;41.822;23.564;2023-04-08T15:44:07;-11255.69;;;11.62;57.29
10145;BME280;5113;41.822;23.564;2023-04-08T15:47:15;-11252.59;;;11.50;57.45
10145;BME280;5113;41.822;23.564;2023-04-08T15:50:22;-11248.53;;;11.36;59.51
10145;BME280;5113;41.822;23.564;2023-04-08T15:53:28;-11240.50;;;11.07;61.19
10145;BME280;5113;41.822;23.564;2023-04-08T15:56:35;-11239.22;;;11.02;60.56
10145;BME280;5113;41.822;23.564;2023-04-08T15:59:41;-11246.84;;;11.30;60.47
10145;BME280;5113;41.822;23.564;2023-04-08T16:02:49;-11239.22;;;11.02;60.31
10145;BME280;5113;41.822;23.564;2023-04-08T16:05:56;-11232.47;;;10.78;61.39
10145;BME280;5113;41.822;23.564;2023-04-08T16:09:02;-11239.38;;;11.03;61.39
10145;BME280;5113;41.822;23.564;2023-04-08T16:12:09;-11234.19;;;10.84;61.26
10145;BME280;5113;41.822;23.564;2023-04-08T16:15:16;-11222.91;;;10.43;62.08
10145;BME280;5113;41.822;23.564;2023-04-08T16:18:24;-11221.50;;;10.38;61.91
10145;BME280;5113;41.822;23.564;2023-04-08T16:21:31;-11226.00;;;10.54;63.01
10145;BME280;5113;41.822;23.564;2023-04-08T16:24:37;-11223.19;;;10.44;63.59